RUM weather

Public forecast

Using degrees Celsius for public forecast. Weather courtesy of forecast.io.

Closest aviation weather report (METAR) to Rumjatar Airport

Closest report is Tribhuvan International Airport, 67.7 nm (125.4 km) WNW. Retrieved 2020/08/14 05:20 UTC (2 minutes ago):

VNKT 140520Z 17005KT 9999 FEW010 SCT030 29/23 Q1008 NOSIG

Closest aviation forecast (TAF) to Rumjatar Airport

Closest forecast is Tribhuvan International Airport, 67.7 nm (125.4 km) WNW. Retrieved 2020-08-14 00:51 UTC (5 hours ago):

TAF TAF VNKT 132300Z 1400/1424 02002KT 7000 FEW010 SCT030 BKN100 BECMG 1404/1405 14005KT 7000 FEW010 SCT030 BKN100 BECMG 1407/1408 18007KT 8000 FEW015 SCT030 BKN100 PROB40 1408/1412 16008KT 5000 -RA/TSRA FEW025CB BECMG 1414/1415 16005KT 7000 FEW010 SCT025 BKN100